createdAt,value
2017-08-11T00:00:16.815Z,74.13
2017-08-11T00:00:57.377Z,74.33
2017-08-11T00:01:37.953Z,75.2
2017-08-11T00:02:18.529Z,74.9
2017-08-11T00:02:59.091Z,74.87
2017-08-11T00:03:39.659Z,74.39
2017-08-11T00:04:20.235Z,74.77
2017-08-11T00:05:00.811Z,74.87
2017-08-11T00:05:41.401Z,74.96
2017-08-11T00:06:21.976Z,74.58
2017-08-11T00:07:02.541Z,75.06
2017-08-11T00:07:43.109Z,75.35
2017-08-11T00:08:23.691Z,75.82
2017-08-11T00:09:04.255Z,76.5
2017-08-11T00:09:44.835Z,76.5
2017-08-11T00:10:25.423Z,76.59
2017-08-11T00:11:06.026Z,76.79
2017-08-11T00:11:46.613Z,77.17
2017-08-11T00:12:27.195Z,77.36
2017-08-11T00:13:07.753Z,77.26
2017-08-11T00:13:48.322Z,76.59
2017-08-11T00:14:28.907Z,75.6
2017-08-11T00:15:09.490Z,74.83
2017-08-11T00:15:50.065Z,75.21
2017-08-11T00:16:30.660Z,75.5
2017-08-11T00:17:11.242Z,76.27
2017-08-11T00:17:51.816Z,76.94
2017-08-11T00:18:32.390Z,77.13
2017-08-11T00:19:12.987Z,76.84
2017-08-11T00:19:53.557Z,77.29
2017-08-11T00:20:34.152Z,77.67
2017-08-11T00:21:14.732Z,78.05
2017-08-11T00:21:55.318Z,78.63
2017-08-11T00:22:35.895Z,78.82
2017-08-11T00:23:16.460Z,79.59
2017-08-11T00:23:57.044Z,79.21
2017-08-11T00:24:37.637Z,78.82
2017-08-11T00:25:18.214Z,78.82
2017-08-11T00:25:58.809Z,79.3
2017-08-11T00:26:39.377Z,79.3
2017-08-11T00:27:19.967Z,79.3
2017-08-11T00:28:00.558Z,79.01
2017-08-11T00:28:41.147Z,79.3
2017-08-11T00:29:21.778Z,79.01
2017-08-11T00:30:02.351Z,79.88
2017-08-11T00:30:42.925Z,79.68
2017-08-11T00:31:23.506Z,79.39
2017-08-11T00:32:04.110Z,79.68
2017-08-11T00:32:47.390Z,79.68
2017-08-11T00:33:27.947Z,79.74
2017-08-11T00:34:08.536Z,80.03
2017-08-11T00:34:49.110Z,81.27
2017-08-11T00:35:29.673Z,81.18
2017-08-11T00:36:10.270Z,80.89
2017-08-11T00:36:50.852Z,80.6
2017-08-11T00:37:31.444Z,80.41
2017-08-11T00:38:12.033Z,81.08
2017-08-11T00:38:52.651Z,80.89
2017-08-11T00:39:33.245Z,81.46
2017-08-11T00:40:13.828Z,81.95
2017-08-11T00:40:54.400Z,81.85
2017-08-11T00:41:34.989Z,81.95
2017-08-11T00:42:15.580Z,81.75
2017-08-11T00:42:56.152Z,82.52
2017-08-11T00:43:36.710Z,82.23
2017-08-11T00:44:17.293Z,82.62
2017-08-11T00:44:57.862Z,83
2017-08-11T00:45:38.466Z,82.52
2017-08-11T00:46:19.040Z,82.32
2017-08-11T00:46:59.660Z,82.9
2017-08-11T00:47:40.247Z,83.09
2017-08-11T00:48:20.818Z,83.09
2017-08-11T00:49:01.400Z,82.9
2017-08-11T00:49:41.978Z,82.62
2017-08-11T00:50:22.573Z,82.71
2017-08-11T00:51:03.178Z,82.52
2017-08-11T00:51:43.752Z,83
2017-08-11T00:52:24.315Z,82.81
2017-08-11T00:53:04.904Z,82.9
2017-08-11T00:53:45.484Z,83
2017-08-11T00:54:26.057Z,83.29
2017-08-11T00:55:06.629Z,83
2017-08-11T00:55:47.202Z,83.44
2017-08-11T00:56:27.784Z,83.05
2017-08-11T00:57:08.368Z,82.86
2017-08-11T00:57:48.946Z,83.44
2017-08-11T00:58:29.515Z,83
2017-08-11T00:59:10.085Z,83.15
2017-08-11T00:59:50.660Z,83.58
2017-08-11T01:00:31.227Z,83.58
2017-08-11T01:01:11.791Z,83.38
2017-08-11T01:01:52.391Z,83.58
2017-08-11T01:02:33.000Z,83.29
2017-08-11T01:03:13.571Z,83.48
2017-08-11T01:03:54.148Z,83.29
2017-08-11T01:04:34.723Z,83.15
2017-08-11T01:05:15.316Z,83.34
2017-08-11T01:05:55.875Z,83.53
2017-08-11T01:06:36.448Z,83.34
2017-08-11T01:07:17.015Z,84.15
2017-08-11T01:07:57.602Z,83.82
2017-08-11T01:08:38.157Z,83.44
2017-08-11T01:09:18.735Z,83.86
2017-08-11T01:09:59.314Z,83.95
2017-08-11T01:10:39.876Z,84.53
2017-08-11T01:11:20.451Z,84.53
2017-08-11T01:12:01.022Z,84.2
2017-08-11T01:12:41.592Z,84.01
2017-08-11T01:13:22.155Z,84.15
2017-08-11T01:14:02.749Z,84.34
2017-08-11T01:14:43.346Z,83.86
2017-08-11T01:15:23.960Z,84.15
2017-08-11T01:16:04.520Z,84.05
2017-08-11T01:16:45.108Z,84.25
2017-08-11T01:17:25.678Z,83.95
2017-08-11T01:18:06.239Z,83.86
2017-08-11T01:18:46.847Z,84.05
2017-08-11T01:19:27.438Z,84.44
2017-08-11T01:20:08.015Z,84.53
2017-08-11T01:20:48.584Z,84.53
2017-08-11T01:21:29.172Z,84.34
2017-08-11T01:22:09.747Z,84.34
2017-08-11T01:22:50.343Z,84.53
2017-08-11T01:23:30.885Z,84.72
2017-08-11T01:24:11.477Z,85.11
2017-08-11T01:24:52.039Z,85.21
2017-08-11T01:25:32.625Z,84.63
2017-08-11T01:26:13.203Z,85.21
2017-08-11T01:26:53.767Z,84.53
2017-08-11T01:27:34.348Z,85.01
2017-08-11T01:28:14.909Z,84.72
2017-08-11T01:28:55.480Z,85.39
2017-08-11T01:29:36.050Z,84.44
2017-08-11T01:30:16.618Z,84.25
2017-08-11T01:30:57.198Z,84.05
2017-08-11T01:31:37.765Z,84.25
2017-08-11T01:32:18.344Z,84.53
2017-08-11T01:32:58.902Z,84.44
2017-08-11T01:33:39.486Z,84.44
2017-08-11T01:34:20.074Z,85.01
2017-08-11T01:35:00.651Z,84.82
2017-08-11T01:35:41.221Z,84.91
2017-08-11T01:36:21.828Z,85.11
2017-08-11T01:37:02.401Z,84.91
2017-08-11T01:37:42.994Z,84.72
2017-08-11T01:38:23.581Z,85.01
2017-08-11T01:39:04.173Z,84.34
2017-08-11T01:39:44.763Z,84.53
2017-08-11T01:40:25.342Z,84.44
2017-08-11T01:41:05.920Z,84.72
2017-08-11T01:41:46.504Z,84.82
2017-08-11T01:42:27.088Z,85.21
2017-08-11T01:43:07.654Z,85.01
2017-08-11T01:43:48.227Z,85.68
2017-08-11T01:44:28.813Z,85.58
2017-08-11T01:45:09.378Z,85.3
2017-08-11T01:45:49.951Z,85.3
2017-08-11T01:46:30.508Z,84.91
2017-08-11T01:47:11.079Z,85.39
2017-08-11T01:47:51.665Z,85.39
2017-08-11T01:48:32.257Z,85.68
2017-08-11T01:49:12.842Z,85.39
2017-08-11T01:49:53.442Z,85.68
2017-08-11T01:50:34.018Z,86.25
2017-08-11T01:51:14.589Z,85.78
2017-08-11T01:51:55.178Z,86.16
2017-08-11T01:52:35.796Z,86.16
2017-08-11T01:53:16.362Z,86.25
2017-08-11T01:53:56.953Z,86.07
2017-08-11T01:54:37.522Z,86.16
2017-08-11T01:55:18.117Z,86.83
2017-08-11T01:55:58.719Z,86.54
2017-08-11T01:56:39.292Z,87.02
2017-08-11T01:57:19.864Z,86.54
2017-08-11T01:58:00.434Z,86.35
2017-08-11T01:58:41.025Z,86.35
2017-08-11T01:59:21.618Z,86.16
2017-08-11T02:00:02.217Z,86.83
2017-08-11T02:00:42.792Z,86.93
2017-08-11T02:01:23.354Z,86.93
2017-08-11T02:02:03.985Z,86.54
2017-08-11T02:02:44.532Z,86.64
2017-08-11T02:03:25.124Z,86.64
2017-08-11T02:04:05.709Z,86.83
2017-08-11T02:04:46.300Z,86.74
2017-08-11T02:05:26.859Z,86.54
2017-08-11T02:06:07.445Z,86.64
2017-08-11T02:06:48.022Z,86.74
2017-08-11T02:07:28.594Z,86.64
2017-08-11T02:08:09.181Z,87.5
2017-08-11T02:08:49.751Z,86.64
2017-08-11T02:09:30.349Z,86.93
2017-08-11T02:10:10.913Z,86.93
2017-08-11T02:10:51.508Z,86.93
2017-08-11T02:11:32.067Z,87.5
2017-08-11T02:12:12.639Z,87.21
2017-08-11T02:12:53.203Z,87.31
2017-08-11T02:13:33.768Z,87.41
2017-08-11T02:14:14.333Z,86.68
2017-08-11T02:14:54.888Z,86.83
2017-08-11T02:15:35.450Z,86.74
2017-08-11T02:16:16.040Z,87.21
2017-08-11T02:16:56.606Z,87.41
2017-08-11T02:17:37.187Z,87.12
2017-08-11T02:18:17.758Z,87.12
2017-08-11T02:18:58.357Z,87.7
2017-08-11T02:19:38.934Z,87.21
2017-08-11T02:20:19.525Z,87.02
2017-08-11T02:21:00.100Z,87.12
2017-08-11T02:21:40.683Z,87.21
2017-08-11T02:22:21.257Z,87.21
2017-08-11T02:23:01.852Z,87.5
2017-08-11T02:23:42.439Z,87.35
2017-08-11T02:24:23.009Z,87.5
2017-08-11T02:25:03.583Z,87.7
2017-08-11T02:25:44.162Z,88.17
2017-08-11T02:26:24.747Z,87.7
2017-08-11T02:27:05.333Z,87.64
2017-08-11T02:27:45.906Z,87.64
2017-08-11T02:28:26.485Z,87.74
2017-08-11T02:29:07.053Z,87.74
2017-08-11T02:29:47.632Z,87.64
2017-08-11T02:30:28.187Z,88.02
2017-08-11T02:31:08.756Z,88.12
2017-08-11T02:31:49.320Z,87.74
2017-08-11T02:32:29.893Z,87.74
2017-08-11T02:33:10.500Z,87.84
2017-08-11T02:33:51.087Z,87.74
2017-08-11T02:34:31.665Z,87.74
2017-08-11T02:35:12.243Z,87.84
2017-08-11T02:35:52.817Z,87.5
2017-08-11T02:36:33.387Z,87.64
2017-08-11T02:37:13.974Z,88.02
2017-08-11T02:37:54.522Z,87.74
2017-08-11T02:38:35.122Z,88.02
2017-08-11T02:39:15.681Z,87.74
2017-08-11T02:39:56.252Z,88.02
2017-08-11T02:40:36.840Z,88.6
2017-08-11T02:41:17.426Z,88.6
2017-08-11T02:41:57.996Z,88.51
2017-08-11T02:42:38.583Z,88.7
2017-08-11T02:43:19.146Z,88.02
2017-08-11T02:43:59.715Z,87.84
2017-08-11T02:44:40.315Z,87.74
2017-08-11T02:45:20.883Z,88.12
2017-08-11T02:46:01.465Z,88.02
2017-08-11T02:46:42.030Z,87.84
2017-08-11T02:47:22.597Z,87.93
2017-08-11T02:48:03.161Z,88.12
2017-08-11T02:48:43.745Z,88.12
2017-08-11T02:49:24.351Z,88.51
2017-08-11T02:50:04.920Z,88.12
2017-08-11T02:50:45.506Z,88.31
2017-08-11T02:51:26.082Z,87.93
2017-08-11T02:52:06.643Z,87.93
2017-08-11T02:52:47.208Z,88.02
2017-08-11T02:53:27.780Z,87.84
2017-08-11T02:54:08.355Z,87.84
2017-08-11T02:54:48.932Z,88.12
2017-08-11T02:55:29.510Z,88.12
2017-08-11T02:56:10.073Z,88.02
2017-08-11T02:56:50.643Z,88.31
2017-08-11T02:57:31.205Z,88.79
2017-08-11T02:58:11.789Z,88.7
2017-08-11T02:58:52.419Z,88.6
2017-08-11T02:59:32.985Z,89.27
2017-08-11T03:00:13.568Z,89.47
2017-08-11T03:00:54.127Z,88.98
2017-08-11T03:01:34.694Z,88.89
2017-08-11T03:02:15.282Z,88.51
2017-08-11T03:02:55.849Z,88.31
2017-08-11T03:03:36.417Z,88.02
2017-08-11T03:04:17.000Z,88.79
2017-08-11T03:04:57.585Z,88.41
2017-08-11T03:05:38.169Z,88.89
2017-08-11T03:06:18.743Z,88.89
2017-08-11T03:06:59.306Z,88.6
2017-08-11T03:07:39.879Z,88.89
2017-08-11T03:08:20.454Z,88.79
2017-08-11T03:09:01.045Z,88.6
2017-08-11T03:09:41.609Z,88.98
2017-08-11T03:10:22.175Z,88.51
2017-08-11T03:11:02.753Z,88.79
2017-08-11T03:11:43.335Z,88.7
2017-08-11T03:12:23.896Z,88.89
2017-08-11T03:13:04.489Z,88.41
2017-08-11T03:13:45.055Z,88.6
2017-08-11T03:14:25.613Z,88.79
2017-08-11T03:15:06.193Z,88.6
2017-08-11T03:15:46.761Z,88.6
2017-08-11T03:16:27.317Z,88.31
2017-08-11T03:17:07.888Z,88.22
2017-08-11T03:17:48.453Z,88.31
2017-08-11T03:18:29.026Z,88.79
2017-08-11T03:19:09.600Z,88.55
2017-08-11T03:19:50.149Z,88.93
2017-08-11T03:20:30.739Z,89.27
2017-08-11T03:21:11.340Z,88.51
2017-08-11T03:21:51.914Z,88.65
2017-08-11T03:22:32.491Z,89.12
2017-08-11T03:23:13.067Z,89.12
2017-08-11T03:23:53.651Z,88.65
2017-08-11T03:24:34.217Z,88.84
2017-08-11T03:25:14.803Z,88.45
2017-08-11T03:25:55.382Z,88.55
2017-08-11T03:26:35.965Z,88.65
2017-08-11T03:27:16.580Z,89.12
2017-08-11T03:27:57.154Z,89.61
2017-08-11T03:28:37.760Z,89.32
2017-08-11T03:29:18.370Z,89.22
2017-08-11T03:29:58.946Z,89.12
2017-08-11T03:30:39.560Z,88.93
2017-08-11T03:31:20.092Z,89.41
2017-08-11T03:32:00.655Z,89.12
2017-08-11T03:32:41.257Z,89.03
2017-08-11T03:33:21.822Z,89.51
2017-08-11T03:34:02.389Z,89.22
2017-08-11T03:34:42.970Z,89.32
2017-08-11T03:35:23.535Z,89.51
2017-08-11T03:36:04.104Z,89.22
2017-08-11T03:36:44.695Z,89.12
2017-08-11T03:37:25.276Z,89.22
2017-08-11T03:38:05.870Z,89.41
2017-08-11T03:38:46.442Z,88.65
2017-08-11T03:39:27.004Z,88.74
2017-08-11T03:40:07.577Z,89.03
2017-08-11T03:40:48.150Z,89.22
2017-08-11T03:41:28.731Z,89.12
2017-08-11T03:42:09.302Z,89.51
2017-08-11T03:42:49.863Z,88.93
2017-08-11T03:43:30.446Z,88.93
2017-08-11T03:44:11.012Z,88.93
2017-08-11T03:44:51.577Z,89.22
2017-08-11T03:45:32.142Z,89.51
2017-08-11T03:46:12.706Z,89.12
2017-08-11T03:46:53.288Z,89.22
2017-08-11T03:47:33.875Z,89.41
2017-08-11T03:48:14.467Z,89.51
2017-08-11T03:48:55.041Z,89.51
2017-08-11T03:49:35.607Z,89.61
2017-08-11T03:50:16.180Z,89.51
2017-08-11T03:50:56.763Z,89.03
2017-08-11T03:51:37.346Z,89.22
2017-08-11T03:52:17.941Z,89.03
2017-08-11T03:52:58.523Z,89.32
2017-08-11T03:53:39.267Z,89.79
2017-08-11T03:54:19.895Z,89.61
2017-08-11T03:55:00.481Z,89.32
2017-08-11T03:55:41.051Z,90.28
2017-08-11T03:56:21.657Z,89.99
2017-08-11T03:57:02.231Z,90.08
2017-08-11T03:57:42.848Z,89.99
2017-08-11T03:58:23.420Z,89.79
2017-08-11T03:59:03.989Z,90.08
2017-08-11T03:59:44.592Z,90.08
2017-08-11T04:00:25.187Z,89.99
2017-08-11T04:01:05.760Z,89.99
2017-08-11T04:01:46.321Z,89.41
2017-08-11T04:02:26.894Z,89.51
2017-08-11T04:03:07.455Z,90.08
2017-08-11T04:03:48.027Z,90.28
2017-08-11T04:04:28.589Z,90.08
2017-08-11T04:05:09.170Z,89.99
2017-08-11T04:05:49.752Z,89.7
2017-08-11T04:06:30.335Z,89.79
2017-08-11T04:07:10.905Z,90.18
2017-08-11T04:07:51.472Z,90.18
2017-08-11T04:08:32.044Z,89.79
2017-08-11T04:09:12.637Z,90.08
2017-08-11T04:09:53.220Z,89.89
2017-08-11T04:10:33.797Z,89.89
2017-08-11T04:11:14.374Z,89.7
2017-08-11T04:11:54.938Z,89.89
2017-08-11T04:12:35.512Z,90.47
2017-08-11T04:13:16.080Z,90.66
2017-08-11T04:13:56.644Z,90.56
2017-08-11T04:14:37.236Z,90.85
2017-08-11T04:15:17.812Z,91.33
2017-08-11T04:15:58.399Z,90.66
2017-08-11T04:16:39.007Z,90.47
2017-08-11T04:17:19.640Z,90.47
2017-08-11T04:18:00.211Z,90.47
2017-08-11T04:18:40.815Z,91.05
2017-08-11T04:19:21.355Z,91.05
2017-08-11T04:20:01.921Z,90.9
2017-08-11T04:20:42.481Z,91.05
2017-08-11T04:21:23.058Z,91.05
2017-08-11T04:22:03.637Z,90.75
2017-08-11T04:22:44.216Z,90.9
2017-08-11T04:23:24.803Z,91.09
2017-08-11T04:24:05.369Z,90.95
2017-08-11T04:24:45.966Z,90.7
2017-08-11T04:25:26.526Z,91.05
2017-08-11T04:26:07.145Z,91.28
2017-08-11T04:26:47.738Z,90.7
2017-08-11T04:27:28.323Z,90.85
2017-08-11T04:28:08.889Z,91.09
2017-08-11T04:28:49.465Z,90.9
2017-08-11T04:29:30.046Z,91.19
2017-08-11T04:30:10.647Z,91.09
2017-08-11T04:30:51.212Z,91.38
2017-08-11T04:31:31.791Z,90.9
2017-08-11T04:32:12.388Z,90.9
2017-08-11T04:32:52.962Z,90.99
2017-08-11T04:33:33.544Z,90.99
2017-08-11T04:34:14.122Z,90.56
2017-08-11T04:34:54.708Z,91.38
2017-08-11T04:35:35.269Z,91.38
2017-08-11T04:36:15.885Z,91.28
2017-08-11T04:36:56.460Z,91.47
2017-08-11T04:37:37.041Z,91.96
2017-08-11T04:38:17.609Z,91.76
2017-08-11T04:38:58.195Z,91.57
2017-08-11T04:39:38.759Z,91.47
2017-08-11T04:40:19.334Z,91.28
2017-08-11T04:40:59.973Z,91.38
2017-08-11T04:41:40.563Z,91.47
2017-08-11T04:42:21.149Z,91.19
2017-08-11T04:43:01.718Z,91.09
2017-08-11T04:43:42.297Z,91.28
2017-08-11T04:44:22.886Z,91.57
2017-08-11T04:45:03.482Z,91.38
2017-08-11T04:45:44.064Z,91.19
2017-08-11T04:46:24.635Z,91.09
2017-08-11T04:47:05.224Z,91.47
2017-08-11T04:47:45.801Z,91.28
2017-08-11T04:48:26.389Z,90.99
2017-08-11T04:49:06.979Z,90.9
2017-08-11T04:49:47.572Z,91.09
2017-08-11T04:50:28.144Z,90.99
2017-08-11T04:51:08.746Z,90.99
2017-08-11T04:51:49.326Z,91.09
2017-08-11T04:52:29.902Z,90.42
2017-08-11T04:53:10.478Z,90.52
2017-08-11T04:53:51.052Z,90.13
2017-08-11T04:54:31.622Z,90.03
2017-08-11T04:55:12.191Z,90.13
2017-08-11T04:55:52.765Z,89.94
2017-08-11T04:56:33.340Z,90.32
2017-08-11T04:57:13.919Z,90.52
2017-08-11T04:57:54.508Z,90.42
2017-08-11T04:58:35.084Z,89.75
2017-08-11T04:59:15.665Z,90.03
2017-08-11T04:59:56.237Z,89.84
2017-08-11T05:00:36.803Z,89.84
2017-08-11T05:01:17.378Z,90.61
2017-08-11T05:01:57.946Z,90.7
2017-08-11T05:02:38.519Z,90.52
2017-08-11T05:03:19.074Z,90.7
2017-08-11T05:03:59.637Z,90.7
2017-08-11T05:04:40.223Z,90.52
2017-08-11T05:05:20.798Z,90.42
2017-08-11T05:06:01.408Z,90.22
2017-08-11T05:06:41.995Z,90.52
2017-08-11T05:07:22.560Z,90.61
2017-08-11T05:08:03.123Z,90.61
2017-08-11T05:08:43.687Z,90.61
2017-08-11T05:09:24.266Z,89.94
2017-08-11T05:10:04.840Z,90.03
2017-08-11T05:10:45.433Z,90.7
2017-08-11T05:11:26.005Z,90.7
2017-08-11T05:12:06.565Z,90.7
2017-08-11T05:12:47.125Z,90.7
2017-08-11T05:13:27.694Z,90.52
2017-08-11T05:14:08.288Z,90.7
2017-08-11T05:14:48.868Z,90.8
2017-08-11T05:15:29.454Z,90.52
2017-08-11T05:16:10.015Z,90.42
2017-08-11T05:16:50.598Z,90.42
2017-08-11T05:17:31.166Z,90.22
2017-08-11T05:18:11.759Z,89.75
2017-08-11T05:18:52.354Z,90.03
2017-08-11T05:19:32.919Z,90.03
2017-08-11T05:20:13.485Z,90.52
2017-08-11T05:20:54.071Z,90.13
2017-08-11T05:21:34.628Z,90.03
2017-08-11T05:22:15.204Z,89.84
2017-08-11T05:22:55.787Z,90.22
2017-08-11T05:23:36.363Z,90.7
2017-08-11T05:24:16.935Z,90.52
2017-08-11T05:24:57.509Z,90.42
2017-08-11T05:25:38.068Z,90.52
2017-08-11T05:26:18.635Z,89.84
2017-08-11T05:26:59.201Z,90.03
2017-08-11T05:27:39.756Z,90.52
2017-08-11T05:28:20.327Z,90.52
2017-08-11T05:29:00.891Z,90.52
2017-08-11T05:29:41.455Z,90.7
2017-08-11T05:30:22.020Z,90.9
2017-08-11T05:31:02.606Z,90.52
2017-08-11T05:31:43.184Z,90.7
2017-08-11T05:32:23.748Z,90.8
2017-08-11T05:33:04.313Z,90.7
2017-08-11T05:33:44.937Z,90.32
2017-08-11T05:34:25.516Z,90.32
2017-08-11T05:35:06.078Z,90.8
2017-08-11T05:35:46.669Z,90.32
2017-08-11T05:36:27.248Z,90.52
2017-08-11T05:37:07.823Z,90.42
2017-08-11T05:37:48.382Z,90.99
2017-08-11T05:38:28.957Z,90.8
2017-08-11T05:39:09.573Z,90.9
2017-08-11T05:39:50.161Z,91.38
2017-08-11T05:40:30.736Z,91.57
2017-08-11T05:41:11.338Z,91.09
2017-08-11T05:41:51.911Z,91.09
2017-08-11T05:42:32.501Z,91.19
2017-08-11T05:43:13.097Z,91.38
2017-08-11T05:43:53.687Z,91.38
2017-08-11T05:44:34.257Z,91.19
2017-08-11T05:45:14.844Z,91.38
2017-08-11T05:45:55.419Z,91.57
2017-08-11T05:46:35.995Z,91.76
2017-08-11T05:47:16.571Z,91.47
2017-08-11T05:47:57.165Z,90.9
2017-08-11T05:48:37.740Z,90.52
2017-08-11T05:49:18.314Z,90.7
2017-08-11T05:49:58.892Z,90.22
2017-08-11T05:50:39.471Z,90.42
2017-08-11T05:51:20.034Z,90.42
2017-08-11T05:52:00.607Z,90.61
2017-08-11T05:52:41.180Z,90.61
2017-08-11T05:53:21.750Z,90.46
2017-08-11T05:54:02.322Z,90.32
2017-08-11T05:54:42.910Z,90.42
2017-08-11T05:55:23.492Z,90.08
2017-08-11T05:56:04.063Z,89.84
2017-08-11T05:56:44.634Z,89.94
2017-08-11T05:57:25.216Z,90.42
2017-08-11T05:58:05.809Z,90.03
2017-08-11T05:58:46.391Z,90.03
2017-08-11T05:59:26.958Z,90.13
2017-08-11T06:00:07.522Z,90.03
2017-08-11T06:00:48.099Z,90.13
2017-08-11T06:01:28.682Z,90.17
2017-08-11T06:02:09.248Z,90.13
2017-08-11T06:02:49.831Z,90.32
2017-08-11T06:03:30.405Z,90.13
2017-08-11T06:04:10.963Z,89.94
2017-08-11T06:04:51.544Z,89.79
2017-08-11T06:05:32.118Z,90.66
2017-08-11T06:06:12.693Z,90.46
2017-08-11T06:06:53.265Z,90.46
2017-08-11T06:07:33.831Z,90.37
2017-08-11T06:08:14.395Z,90.56
2017-08-11T06:08:54.959Z,90.75
2017-08-11T06:09:35.558Z,90.46
2017-08-11T06:10:16.125Z,90.56
2017-08-11T06:10:56.688Z,90.46
2017-08-11T06:11:37.266Z,90.66
2017-08-11T06:12:17.851Z,90.66
2017-08-11T06:12:58.413Z,90.75
2017-08-11T06:13:38.996Z,90.56
2017-08-11T06:14:19.576Z,90.94
2017-08-11T06:15:00.147Z,90.46
2017-08-11T06:15:40.713Z,90.66
2017-08-11T06:16:21.282Z,90.75
2017-08-11T06:17:01.864Z,90.66
2017-08-11T06:17:42.610Z,90.46
2017-08-11T06:18:23.165Z,90.46
2017-08-11T06:19:03.776Z,90.27
2017-08-11T06:19:44.350Z,89.98
2017-08-11T06:20:24.944Z,90.46
2017-08-11T06:21:05.516Z,89.89
2017-08-11T06:21:46.082Z,89.84
2017-08-11T06:22:26.664Z,90.27
2017-08-11T06:23:07.233Z,90.08
2017-08-11T06:23:47.824Z,89.79
2017-08-11T06:24:28.401Z,90.08
2017-08-11T06:25:08.978Z,90.37
2017-08-11T06:25:49.558Z,90.66
2017-08-11T06:26:30.136Z,91.23
2017-08-11T06:27:10.707Z,90.94
2017-08-11T06:27:51.295Z,91.04
2017-08-11T06:28:31.880Z,91.04
2017-08-11T06:29:12.466Z,91.04
2017-08-11T06:29:53.072Z,91.42
2017-08-11T06:30:33.660Z,91.33
2017-08-11T06:31:14.224Z,91.13
2017-08-11T06:31:54.805Z,91.04
2017-08-11T06:32:35.389Z,91.13
2017-08-11T06:33:15.961Z,91.04
2017-08-11T06:33:56.543Z,91.23
2017-08-11T06:34:37.121Z,91.04
2017-08-11T06:35:17.717Z,91.04
2017-08-11T06:35:58.268Z,90.94
2017-08-11T06:36:38.833Z,90.94
2017-08-11T06:37:19.403Z,91.13
2017-08-11T06:38:00.003Z,90.94
2017-08-11T06:38:40.573Z,91.42
2017-08-11T06:39:21.147Z,91.33
2017-08-11T06:40:01.710Z,91.04
2017-08-11T06:40:42.312Z,91.33
2017-08-11T06:41:22.876Z,91.04
2017-08-11T06:42:03.450Z,90.75
2017-08-11T06:42:44.017Z,91.23
2017-08-11T06:43:24.594Z,91.23
2017-08-11T06:44:05.165Z,91.04
2017-08-11T06:44:45.739Z,91.13
2017-08-11T06:45:26.307Z,91.04
2017-08-11T06:46:06.913Z,91.04
2017-08-11T06:46:47.483Z,91.42
2017-08-11T06:47:28.072Z,91.71
2017-08-11T06:48:08.642Z,91.13
2017-08-11T06:48:49.221Z,91.42
2017-08-11T06:49:29.832Z,91.13
2017-08-11T06:50:10.412Z,91.52
2017-08-11T06:50:50.993Z,91.33
2017-08-11T06:51:31.574Z,91.42
2017-08-11T06:52:12.143Z,91.13
2017-08-11T06:52:52.723Z,91.42
2017-08-11T06:53:33.300Z,91.42
2017-08-11T06:54:13.861Z,91.13
2017-08-11T06:54:54.441Z,91.04
2017-08-11T06:55:34.998Z,91.23
2017-08-11T06:56:15.591Z,91.23
2017-08-11T06:56:56.153Z,91.42
2017-08-11T06:57:36.748Z,91.33
2017-08-11T06:58:17.318Z,91.81
2017-08-11T06:58:57.905Z,91.61
2017-08-11T06:59:38.488Z,91.81
2017-08-11T07:00:19.066Z,91.52
2017-08-11T07:00:59.677Z,91.61
2017-08-11T07:01:40.259Z,91.52
2017-08-11T07:02:20.843Z,91.52
2017-08-11T07:03:01.421Z,91.52
2017-08-11T07:03:42.008Z,91.61
2017-08-11T07:04:22.595Z,91.71
2017-08-11T07:05:03.185Z,91.42
2017-08-11T07:05:43.761Z,91.61
2017-08-11T07:06:24.349Z,91.71
2017-08-11T07:07:04.933Z,91.52
2017-08-11T07:07:45.523Z,91.81
2017-08-11T07:08:26.078Z,91.42
2017-08-11T07:09:06.649Z,91.71
2017-08-11T07:09:47.221Z,91.81
2017-08-11T07:10:27.790Z,91.66
2017-08-11T07:11:08.401Z,91.56
2017-08-11T07:11:48.986Z,91.61
2017-08-11T07:12:29.555Z,91.66
2017-08-11T07:13:10.118Z,91.85
2017-08-11T07:13:50.702Z,91.52
2017-08-11T07:14:31.270Z,91.42
2017-08-11T07:15:11.842Z,91.95
2017-08-11T07:15:52.406Z,91.85
2017-08-11T07:16:32.997Z,91.75
2017-08-11T07:17:13.555Z,91.75
2017-08-11T07:17:54.142Z,91.52
2017-08-11T07:18:34.721Z,91.66
2017-08-11T07:19:15.304Z,91.56
2017-08-11T07:19:55.888Z,91.66
2017-08-11T07:20:36.454Z,91.47
2017-08-11T07:21:17.021Z,91.66
2017-08-11T07:21:57.598Z,91.75
2017-08-11T07:22:38.165Z,91.18
2017-08-11T07:23:18.727Z,91.28
2017-08-11T07:23:59.297Z,91.18
2017-08-11T07:24:39.874Z,91.75
2017-08-11T07:25:20.479Z,91.47
2017-08-11T07:26:01.054Z,91.75
2017-08-11T07:26:41.637Z,91.75
2017-08-11T07:27:22.226Z,91.47
2017-08-11T07:28:02.806Z,91.66
2017-08-11T07:28:43.378Z,91.56
2017-08-11T07:29:23.958Z,91.85
2017-08-11T07:30:04.519Z,91.66
2017-08-11T07:30:45.111Z,91.75
2017-08-11T07:31:25.682Z,91.85
2017-08-11T07:32:06.273Z,92.05
2017-08-11T07:32:46.852Z,91.66
2017-08-11T07:33:27.413Z,91.66
2017-08-11T07:34:08.005Z,91.85
2017-08-11T07:34:48.585Z,91.56
2017-08-11T07:35:29.164Z,91.47
2017-08-11T07:36:09.729Z,91.75
2017-08-11T07:36:50.305Z,91.85
2017-08-11T07:37:30.967Z,91.56
2017-08-11T07:38:11.552Z,91.56
2017-08-11T07:38:52.130Z,91.56
2017-08-11T07:39:32.706Z,91.56
2017-08-11T07:40:13.303Z,91.99
2017-08-11T07:40:53.869Z,91.47
2017-08-11T07:41:34.464Z,91.75
2017-08-11T07:42:15.058Z,91.37
2017-08-11T07:42:55.625Z,91.47
2017-08-11T07:43:36.192Z,91.47
2017-08-11T07:44:16.769Z,91.85
2017-08-11T07:44:57.340Z,91.8
2017-08-11T07:45:37.926Z,91.56
2017-08-11T07:46:18.472Z,91.56
2017-08-11T07:46:59.048Z,91.9
2017-08-11T07:47:39.621Z,91.47
2017-08-11T07:48:20.209Z,91.32
2017-08-11T07:49:00.805Z,91.61
2017-08-11T07:49:41.415Z,91.52
2017-08-11T07:50:22.029Z,91.71
2017-08-11T07:51:02.604Z,91.42
2017-08-11T07:51:43.179Z,91.71
2017-08-11T07:52:23.768Z,91.22
2017-08-11T07:53:04.346Z,91.52
2017-08-11T07:53:44.921Z,91.22
2017-08-11T07:54:25.491Z,91.32
2017-08-11T07:55:06.055Z,90.94
2017-08-11T07:55:46.646Z,91.22
2017-08-11T07:56:27.233Z,91.52
2017-08-11T07:57:07.806Z,91.71
2017-08-11T07:57:48.379Z,91.61
2017-08-11T07:58:28.985Z,91.61
2017-08-11T07:59:09.584Z,91.61
2017-08-11T07:59:50.167Z,91.42
2017-08-11T08:00:30.739Z,90.84
2017-08-11T08:01:11.316Z,91.13
2017-08-11T08:01:51.943Z,90.84
2017-08-11T08:02:32.506Z,91.03
2017-08-11T08:03:13.078Z,90.94
2017-08-11T08:03:53.653Z,91.22
2017-08-11T08:04:34.226Z,91.22
2017-08-11T08:05:14.783Z,91.22
2017-08-11T08:05:55.354Z,91.42
2017-08-11T08:06:35.934Z,91.52
2017-08-11T08:07:16.499Z,90.84
2017-08-11T08:07:57.068Z,91.52
2017-08-11T08:08:37.655Z,91.32
2017-08-11T08:09:18.234Z,91.32
2017-08-11T08:09:58.824Z,91.22
2017-08-11T08:10:39.524Z,91.13
2017-08-11T08:11:20.101Z,91.61
2017-08-11T08:12:00.741Z,91.61
2017-08-11T08:12:41.369Z,91.8
2017-08-11T08:13:21.954Z,91.71
2017-08-11T08:14:02.573Z,91.9
2017-08-11T08:14:43.162Z,91.8
2017-08-11T08:15:23.718Z,91.9
2017-08-11T08:16:04.303Z,91.9
2017-08-11T08:16:44.877Z,92.38
2017-08-11T08:17:25.471Z,92.09
2017-08-11T08:18:06.034Z,92.29
2017-08-11T08:18:46.615Z,91.99
2017-08-11T08:19:27.235Z,92.19
2017-08-11T08:20:07.783Z,92.47
2017-08-11T08:20:48.356Z,92.19
2017-08-11T08:21:28.921Z,92.19
2017-08-11T08:22:09.526Z,92.29
2017-08-11T08:22:50.093Z,92.09
2017-08-11T08:23:30.689Z,92.09
2017-08-11T08:24:11.269Z,92.19
2017-08-11T08:24:51.856Z,92.57
2017-08-11T08:25:32.435Z,92.29
2017-08-11T08:26:13.011Z,92.67
2017-08-11T08:26:53.583Z,92.29
2017-08-11T08:27:34.172Z,92.19
2017-08-11T08:28:14.779Z,91.9
2017-08-11T08:28:55.349Z,91.99
2017-08-11T08:29:35.926Z,92.19
2017-08-11T08:30:16.503Z,92.47
2017-08-11T08:30:57.092Z,92.57
2017-08-11T08:31:37.658Z,91.8
2017-08-11T08:32:18.220Z,92.76
2017-08-11T08:32:58.787Z,92.76
2017-08-11T08:33:39.369Z,92.29
2017-08-11T08:34:19.972Z,92.76
2017-08-11T08:35:00.538Z,92.38
2017-08-11T08:35:41.099Z,92.67
2017-08-11T08:36:21.671Z,91.99
2017-08-11T08:37:02.243Z,91.9
2017-08-11T08:37:42.826Z,91.22
2017-08-11T08:38:23.408Z,91.47
2017-08-11T08:39:03.991Z,91.32
2017-08-11T08:39:44.568Z,91.28
2017-08-11T08:40:25.149Z,90.89
2017-08-11T08:41:05.713Z,90.7
2017-08-11T08:41:46.294Z,90.7
2017-08-11T08:42:26.858Z,90.6
2017-08-11T08:43:07.430Z,90.7
2017-08-11T08:43:48.026Z,90.8
2017-08-11T08:44:28.594Z,90.8